Latest Weather Observations for Canterbury

IDN60901

Issued at 9:41 pm EST Sunday 30 August 2015 (issued every 10 minutes, with the page automatically refreshed every 10 minutes)

About weather observations | Map of Sydney area stations | Latest observations for Sydney area | Other Formats
Station Details ID: 066194 Name: CANTERBURY RACECOURSE AWS Lat: -33.91 Lon: 151.11 Height: 3.0 m
Data from the previous 72 hours. | See also: Recent months at Canterbury
Date/Time
EST
Tmp

°C
App
Tmp
°C
Dew
Point
°C
Rel
Hum
%
Delta-T

°C
Wind Press
QNH
hPa
Press
MSL
hPa
Rain
since
9 am
mm
Dir
 
Spd
km/h
Gust
km/h
Spd
kts
Gust
kts
30/09:30pm 13.3 10.5 6.9 65 3.1 S 11 20 6 11 - - 0.0
30/09:00pm 13.4 10.3 7.4 67 2.9 S 13 22 7 12 - - 0.0
30/08:30pm 13.8 10.6 6.9 63 3.3 S 13 22 7 12 - - 0.0
30/08:00pm 14.1 11.3 6.9 62 3.5 S 11 19 6 10 - - 0.0
30/07:30pm 14.0 11.4 6.1 59 3.8 S 9 17 5 9 - - 0.0
30/07:00pm 14.4 11.1 6.5 59 3.8 SSE 13 19 7 10 - - 0.0
30/06:30pm 14.4 11.1 6.5 59 3.8 S 13 24 7 13 - - 0.0
30/06:00pm 14.4 11.1 6.3 58 3.9 SSE 13 24 7 13 - - 0.0
30/05:30pm 14.4 10.3 6.0 57 4.0 SSE 17 24 9 13 - - 0.0
30/05:00pm 15.0 10.4 5.5 53 4.5 S 19 28 10 15 - - 0.0
30/04:30pm 15.2 10.2 6.5 56 4.2 S 22 32 12 17 - - 0.0
30/04:00pm 15.6 10.5 6.1 53 4.6 SSE 22 35 12 19 - - 0.0
30/03:30pm 16.1 11.0 6.0 51 4.9 SSE 22 33 12 18 - - 0.0
30/03:00pm 16.3 10.8 5.9 50 5.0 SE 24 35 13 19 - - 0.0
30/02:30pm 16.1 10.9 5.7 50 5.0 SSE 22 32 12 17 - - 0.0
30/02:00pm 16.2 10.2 5.5 49 5.1 SE 26 37 14 20 - - 0.0
30/01:30pm 16.8 12.0 5.4 47 5.5 SSE 20 32 11 17 - - 0.0
30/01:00pm 16.6 11.3 4.9 46 5.6 SSE 22 35 12 19 - - 0.0
30/12:30pm 16.1 10.8 4.8 47 5.3 SSE 22 32 12 17 - - 0.0
30/12:00pm 16.2 11.4 4.6 46 5.5 S 19 30 10 16 - - 0.0
30/11:30am 16.1 12.1 4.8 47 5.3 SSE 15 24 8 13 - - 0.0
30/11:00am 16.0 12.2 3.8 44 5.6 S 13 24 7 13 - - 0.0
30/10:30am 15.2 12.2 4.0 47 5.2 WSW 9 17 5 9 - - 0.0
30/10:00am 14.1 11.2 4.4 52 4.5 WSW 9 20 5 11 - - 0.0
30/09:30am 13.2 9.4 4.1 54 4.1 WNW 13 20 7 11 - - 0.0
30/09:00am 12.0 8.1 3.5 56 3.8 WSW 13 22 7 12 - - 0.0
30/08:30am 11.0 7.0 3.1 58 3.4 WSW 13 20 7 11 - - 0.0
30/08:00am 10.1 6.0 2.5 59 3.2 WSW 13 22 7 12 - - 0.0
30/07:30am 9.2 5.5 2.5 63 2.8 W 11 17 6 9 - - 0.0
30/07:00am 7.8 4.5 2.3 68 2.3 W 9 15 5 8 - - 0.0
30/06:30am 6.8 4.0 1.9 71 2.0 NW 6 11 3 6 - - 0.0
30/06:00am 6.6 3.7 1.7 71 2.0 NW 6 9 3 5 - - 0.0
30/05:30am 7.0 4.2 1.9 70 2.1 WNW 6 9 3 5 - - 0.0
30/05:00am 7.1 4.3 1.8 69 2.2 NW 6 9 3 5 - - 0.0
30/04:30am 7.5 4.5 1.8 67 2.3 W 7 13 4 7 - - 0.0
30/04:00am 7.6 4.7 1.7 66 2.4 W 6 11 3 6 - - 0.0
30/03:30am 7.8 4.7 1.2 63 2.7 W 7 13 4 7 - - 0.0
30/03:00am 8.4 4.5 1.3 61 2.9 W 11 17 6 9 - - 0.0
30/02:30am 8.5 4.7 1.6 62 2.8 W 11 20 6 11 - - 0.0
30/02:00am 7.9 4.5 1.7 65 2.5 WNW 9 17 5 9 - - 0.0
30/01:30am 8.2 5.2 2.0 65 2.6 WNW 7 15 4 8 - - 0.0
30/01:00am 8.2 5.2 2.0 65 2.6 WNW 7 13 4 7 - - 0.0
30/12:30am 8.6 5.6 2.2 64 2.7 WNW 7 11 4 6 - - 0.0
30/12:00am 8.9 6.1 1.8 61 2.9 W 6 9 3 5 - - 0.0
 
Date/Time
EST
Tmp

°C
App
Tmp
°C
Dew
Point
°C
Rel
Hum
%
Delta-T

°C
Wind Press
QNH
hPa
Press
MSL
hPa
Rain
since
9 am
mm
Dir
 
Spd
km/h
Gust
km/h
Spd
kts
Gust
kts
29/11:30pm 9.0 6.1 1.7 60 3.0 WNW 6 9 3 5 - - 0.0
29/11:00pm 10.2 6.8 1.8 56 3.5 WSW 9 13 5 7 - - 0.0
29/10:30pm 10.6 6.8 1.7 54 3.7 WSW 11 15 6 8 - - 0.0
29/10:00pm 10.8 7.4 1.9 54 3.8 WSW 9 15 5 8 - - 0.0
29/09:30pm 11.8 7.6 1.7 50 4.3 WSW 13 19 7 10 - - 0.0
29/09:00pm 12.1 8.0 2.0 50 4.3 SW 13 19 7 10 - - 0.0
29/08:30pm 9.6 7.4 5.2 74 2.0 W 6 9 3 5 - - 0.0
29/08:00pm 10.4 9.7 6.9 79 1.7 CALM 0 6 0 3 - - 0.0
29/07:30pm 10.0 9.2 6.5 79 1.6 CALM 0 0 0 0 - - 0.0
29/07:00pm 10.4 9.4 5.8 73 2.1 CALM 0 0 0 0 - - 0.0
29/06:30pm 12.3 11.5 6.4 67 2.8 CALM 0 0 0 0 - - 0.0
29/06:00pm 13.6 11.8 7.2 65 3.1 SSE 6 9 3 5 - - 0.0
29/05:30pm 15.3 12.8 6.6 56 4.2 SE 9 15 5 8 - - 0.0
29/05:00pm 16.2 12.5 6.3 52 4.8 ESE 15 22 8 12 - - 0.0
29/04:30pm 17.3 13.1 5.9 47 5.5 SE 17 20 9 11 - - 0.0
29/04:00pm 17.2 13.0 5.8 47 5.5 SSW 17 24 9 13 - - 0.0
29/03:30pm 19.2 15.2 3.0 34 7.5 WSW 13 24 7 13 - - 0.0
29/03:00pm 19.1 15.8 4.5 38 7.0 WNW 11 19 6 10 - - 0.0
29/02:30pm 19.2 16.4 3.0 34 7.5 W 7 19 4 10 - - 0.0
29/02:00pm 17.7 14.4 2.5 36 6.9 WNW 9 17 5 9 - - 0.0
29/01:30pm 17.8 13.9 3.3 38 6.7 WNW 13 20 7 11 - - 0.0
29/01:00pm 17.7 14.7 3.9 40 6.5 WSW 9 19 5 10 - - 0.0
29/12:30pm 17.4 13.6 4.0 41 6.3 WNW 13 22 7 12 - - 0.0
29/12:00pm 17.4 15.1 5.7 46 5.7 NW 7 13 4 7 - - 0.0
29/11:30am 16.7 13.6 5.6 48 5.3 WSW 11 22 6 12 - - 0.0
29/11:00am 16.3 13.1 5.3 48 5.3 NW 11 19 6 10 - - 0.0
29/10:30am 15.6 12.8 5.2 50 4.9 WNW 9 22 5 12 - - 0.0
29/10:00am 15.3 12.6 5.5 52 4.7 NW 9 13 5 7 - - 0.0
29/09:30am 14.1 13.0 6.9 62 3.5 SW 2 7 1 4 - - 0.0
29/09:00am 13.0 10.5 6.4 64 3.1 WNW 9 13 5 7 - - 0.0
29/08:30am 11.6 8.7 6.7 72 2.3 NW 11 17 6 9 - - 0.0
29/08:00am 10.7 8.3 7.2 79 1.7 NW 9 13 5 7 - - 0.0
29/07:30am 8.9 6.7 7.8 93 0.5 W 9 13 5 7 - - 0.0
29/07:00am 6.5 5.6 6.1 97 0.2 CALM 0 0 0 0 - - 0.0
29/06:30am 5.6 4.5 5.0 96 0.3 CALM 0 0 0 0 - - 0.0
29/06:00am 5.6 4.5 4.9 95 0.3 CALM 0 0 0 0 - - 0.0
29/05:30am 6.1 5.1 5.4 95 0.3 CALM 0 0 0 0 - - 0.0
29/05:00am 6.6 5.7 5.9 95 0.3 CALM 0 0 0 0 - - 0.0
29/04:30am 6.3 5.2 4.9 91 0.6 CALM 0 0 0 0 - - 0.0
29/04:00am 7.3 6.4 5.9 91 0.6 CALM 0 0 0 0 - - 0.0
29/03:30am 7.6 6.7 6.2 91 0.6 CALM 0 0 0 0 - - 0.0
29/03:00am 7.9 6.1 7.1 95 0.4 WNW 6 7 3 4 - - 0.0
29/02:30am 7.5 6.7 6.6 94 0.4 CALM 0 0 0 0 - - 0.0
29/02:00am 7.6 6.9 6.9 95 0.3 CALM 0 0 0 0 - - 0.0
29/01:30am 7.6 6.8 6.7 94 0.4 CALM 0 0 0 0 - - 0.0
29/01:00am 8.0 7.4 7.2 95 0.4 CALM 0 0 0 0 - - 0.0
29/12:30am 8.5 7.9 7.6 94 0.4 CALM 0 0 0 0 - - 0.0
29/12:00am 8.7 7.4 7.8 94 0.4 NW 4 11 2 6 - - 0.0
 
Date/Time
EST
Tmp

°C
App
Tmp
°C
Dew
Point
°C
Rel
Hum
%
Delta-T

°C
Wind Press
QNH
hPa
Press
MSL
hPa
Rain
since
9 am
mm
Dir
 
Spd
km/h
Gust
km/h
Spd
kts
Gust
kts
28/11:30pm 9.2 8.8 8.1 93 0.5 CALM 0 0 0 0 - - 0.0
28/11:00pm 9.3 8.9 8.1 92 0.6 CALM 0 0 0 0 - - 0.0
28/10:30pm 9.7 9.3 8.1 90 0.8 CALM 0 0 0 0 - - 0.0
28/10:00pm 10.0 9.5 7.9 87 1.0 CALM 0 0 0 0 - - 0.0
28/09:30pm 11.1 10.8 8.7 85 1.2 CALM 0 0 0 0 - - 0.0
28/09:00pm 12.0 11.6 8.1 77 1.9 CALM 0 0 0 0 - - 0.0
28/08:30pm 14.0 12.4 8.8 71 2.6 WSW 7 11 4 6 - - 0.0
28/08:00pm 14.4 12.8 8.8 69 2.8 S 7 11 4 6 - - 0.0
28/07:30pm 14.9 13.3 8.6 66 3.2 S 7 13 4 7 - - 0.0
28/07:00pm 15.4 13.0 8.6 64 3.5 S 11 17 6 9 - - 0.0
28/06:30pm 15.6 13.1 8.1 61 3.8 S 11 19 6 10 - - 0.0
28/06:00pm 15.8 13.3 8.1 60 3.9 SSE 11 17 6 9 - - 0.0
28/05:30pm 16.0 13.6 8.7 62 3.7 SSE 11 19 6 10 - - 0.0
28/05:00pm 16.3 13.4 8.3 59 4.1 SSE 13 22 7 12 - - 0.0
28/04:30pm 16.6 13.3 8.1 57 4.3 SSE 15 22 8 12 - - 0.0
28/04:00pm 17.1 13.3 7.5 53 4.8 SSE 17 24 9 13 - - 0.0
28/03:30pm 18.0 14.5 5.6 44 6.0 S 13 20 7 11 - - 0.0
28/03:00pm 18.6 14.6 5.1 41 6.5 SSW 15 24 8 13 - - 0.0
28/02:30pm 18.3 15.3 6.2 45 6.0 S 11 19 6 10 - - 0.0
28/02:00pm 19.0 14.2 4.4 38 7.0 S 19 28 10 15 - - 0.0
28/01:30pm 18.4 14.4 4.9 41 6.5 SSW 15 22 8 12 - - 0.0
28/01:00pm 18.6 15.0 4.8 40 6.6 SSW 13 26 7 14 - - 0.0
28/12:30pm 18.1 14.2 5.3 43 6.2 WSW 15 24 8 13 - - 0.0
28/12:00pm 18.1 13.5 5.7 44 6.0 WSW 19 28 10 15 - - 0.0
28/11:30am 17.8 13.5 5.4 44 6.0 WSW 17 26 9 14 - - 0.0
28/11:00am 16.9 12.1 5.5 47 5.5 W 20 32 11 17 - - 0.0
28/10:30am 16.7 11.8 5.0 46 5.6 WSW 20 33 11 18 - - 0.0
28/10:00am 16.1 10.3 4.5 46 5.4 WSW 24 41 13 22 - - 0.0
28/09:30am 15.8 10.5 5.1 49 5.1 W 22 41 12 22 - - 0.0
28/09:00am 14.9 10.0 5.1 52 4.6 W 20 33 11 18 - - 0.0
28/08:30am 14.2 10.1 4.5 52 4.5 W 15 24 8 13 - - 0.0
28/08:00am 12.9 9.3 4.8 58 3.7 WNW 13 20 7 11 - - 0.0
28/07:30am 11.6 8.0 4.8 63 3.1 WNW 13 19 7 10 - - 0.0
28/07:00am 9.7 7.2 4.5 70 2.3 WNW 7 13 4 7 - - 0.0
28/06:30am 9.4 6.5 4.4 71 2.2 NW 9 13 5 7 - - 0.0
28/06:00am 8.7 6.1 4.3 74 1.9 NW 7 11 4 6 - - 0.0
28/05:30am 8.5 6.1 4.1 74 1.9 NW 6 9 3 5 - - 0.0
28/05:00am 8.7 5.8 4.5 75 1.9 NW 9 44 5 24 - - 0.0
28/04:30am 8.6 6.6 4.2 74 1.9 WNW 4 9 2 5 - - 0.0
28/04:00am 9.1 6.5 4.3 72 2.1 NW 7 9 4 5 - - 0.0
28/03:30am 9.8 7.2 4.2 68 2.5 WNW 7 13 4 7 - - 0.0
28/03:00am 10.3 6.6 4.5 67 2.6 NW 13 17 7 9 - - 0.0
28/02:30am 9.5 6.6 4.7 72 2.1 WNW 9 13 5 7 - - 0.0
28/02:00am 9.5 7.0 4.9 73 2.1 WNW 7 11 4 6 - - 0.0
28/01:30am 9.9 7.4 4.7 70 2.3 NW 7 11 4 6 - - 0.0
28/01:00am 10.9 8.5 4.4 64 2.9 NNW 6 11 3 6 - - 0.0
28/12:30am 10.8 7.9 4.7 66 2.7 NW 9 15 5 8 - - 0.0
28/12:00am 11.0 7.8 4.9 66 2.8 NW 11 17 6 9 - - 0.0
 
Date/Time
EST
Tmp

°C
App
Tmp
°C
Dew
Point
°C
Rel
Hum
%
Delta-T

°C
Wind Press
QNH
hPa
Press
MSL
hPa
Rain
since
9 am
mm
Dir
 
Spd
km/h
Gust
km/h
Spd
kts
Gust
kts
27/11:30pm 11.8 8.5 4.8 62 3.2 WNW 11 19 6 10 - - 0.0
27/11:00pm 11.8 8.9 4.8 62 3.2 WNW 9 15 5 8 - - 0.0
27/10:30pm 12.3 9.0 4.8 60 3.4 NW 11 20 6 11 - - 0.0
27/10:00pm 12.8 9.2 5.0 59 3.6 NW 13 19 7 10 - - 0.0

Latest Capital City Observations: Canberra | Sydney | Melbourne | Brisbane | Adelaide | Perth | Hobart | Darwin

Other Formats:

Comma delimited format used in spreadsheet applications
http://www.bom.gov.au/fwo/IDN60901/IDN60901.94766.axf

JavaScript Object Notation format (JSON) in row-major order
http://www.bom.gov.au/fwo/IDN60901/IDN60901.94766.json